sensor_id;sensor_type;location;lat;lon;timestamp;pressure;altitude;pressure_sealevel;temperature;humidity
60589;BME280;46421;48.610;9.334;2022-10-18T00:00:25;98945.09;;;12.31;100.00
60589;BME280;46421;48.610;9.334;2022-10-18T00:02:51;98945.09;;;12.14;100.00
60589;BME280;46421;48.610;9.334;2022-10-18T00:05:17;98943.69;;;11.94;100.00
60589;BME280;46421;48.610;9.334;2022-10-18T00:07:42;98947.19;;;11.94;100.00
60589;BME280;46421;48.610;9.334;2022-10-18T00:10:08;98940.34;;;11.92;100.00
60589;BME280;46421;48.610;9.334;2022-10-18T00:12:34;98945.34;;;11.86;100.00
60589;BME280;46421;48.610;9.334;2022-10-18T00:15:01;98944.81;;;11.75;100.00
60589;BME280;46421;48.610;9.334;2022-10-18T00:17:26;98948.03;;;11.95;100.00
60589;BME280;46421;48.610;9.334;2022-10-18T00:19:52;98954.97;;;12.39;100.00
60589;BME280;46421;48.610;9.334;2022-10-18T00:22:17;98953.94;;;12.56;100.00
60589;BME280;46421;48.610;9.334;2022-10-18T00:24:43;98956.28;;;12.68;99.88
60589;BME280;46421;48.610;9.334;2022-10-18T00:27:08;98954.47;;;12.35;100.00
60589;BME280;46421;48.610;9.334;2022-10-18T00:29:33;98955.94;;;12.29;100.00
60589;BME280;46421;48.610;9.334;2022-10-18T00:31:59;98946.59;;;12.09;100.00
60589;BME280;46421;48.610;9.334;2022-10-18T00:34:24;98949.97;;;12.60;100.00
60589;BME280;46421;48.610;9.334;2022-10-18T00:36:49;98946.97;;;12.55;99.24
60589;BME280;46421;48.610;9.334;2022-10-18T00:39:19;98948.94;;;12.37;100.00
60589;BME280;46421;48.610;9.334;2022-10-18T00:41:45;98948.94;;;12.78;100.00
60589;BME280;46421;48.610;9.334;2022-10-18T00:46:38;98954.63;;;12.67;99.44
60589;BME280;46421;48.610;9.334;2022-10-18T00:49:07;98957.28;;;12.42;98.59
60589;BME280;46421;48.610;9.334;2022-10-18T00:51:40;98957.78;;;12.78;95.79
60589;BME280;46421;48.610;9.334;2022-10-18T00:54:06;98967.13;;;12.33;100.00
60589;BME280;46421;48.610;9.334;2022-10-18T00:56:32;98960.56;;;12.02;100.00
60589;BME280;46421;48.610;9.334;2022-10-18T00:58:58;98959.75;;;11.59;100.00
60589;BME280;46421;48.610;9.334;2022-10-18T01:01:24;98954.00;;;11.80;100.00
60589;BME280;46421;48.610;9.334;2022-10-18T01:03:49;98955.41;;;12.01;100.00
60589;BME280;46421;48.610;9.334;2022-10-18T01:06:16;98958.09;;;12.26;100.00
60589;BME280;46421;48.610;9.334;2022-10-18T01:09:02;98955.47;;;12.67;98.63
60589;BME280;46421;48.610;9.334;2022-10-18T01:11:37;98964.63;;;12.40;99.42
60589;BME280;46421;48.610;9.334;2022-10-18T01:16:57;98953.31;;;12.54;98.26
60589;BME280;46421;48.610;9.334;2022-10-18T01:19:48;98939.09;;;12.37;100.00
60589;BME280;46421;48.610;9.334;2022-10-18T01:23:10;98941.94;;;11.68;100.00
60589;BME280;46421;48.610;9.334;2022-10-18T01:25:25;98946.44;;;12.10;100.00
60589;BME280;46421;48.610;9.334;2022-10-18T01:30:38;98954.44;;;12.76;98.55
60589;BME280;46421;48.610;9.334;2022-10-18T01:33:17;98951.78;;;12.35;100.00
60589;BME280;46421;48.610;9.334;2022-10-18T01:35:48;98937.84;;;11.90;100.00
60589;BME280;46421;48.610;9.334;2022-10-18T01:38:16;98947.81;;;11.80;100.00
60589;BME280;46421;48.610;9.334;2022-10-18T01:40:46;98947.81;;;11.80;100.00
60589;BME280;46421;48.610;9.334;2022-10-18T01:43:13;98944.06;;;11.99;100.00
60589;BME280;46421;48.610;9.334;2022-10-18T01:45:40;98949.94;;;12.36;100.00
60589;BME280;46421;48.610;9.334;2022-10-18T01:48:06;98953.63;;;12.76;100.00
60589;BME280;46421;48.610;9.334;2022-10-18T01:50:34;98946.63;;;12.58;100.00
60589;BME280;46421;48.610;9.334;2022-10-18T01:52:59;98947.47;;;12.42;100.00
60589;BME280;46421;48.610;9.334;2022-10-18T01:55:36;98952.81;;;12.59;100.00
60589;BME280;46421;48.610;9.334;2022-10-18T02:00:40;98945.13;;;12.56;100.00
60589;BME280;46421;48.610;9.334;2022-10-18T02:03:20;98944.94;;;12.49;100.00
60589;BME280;46421;48.610;9.334;2022-10-18T02:06:10;98934.75;;;12.94;100.00
60589;BME280;46421;48.610;9.334;2022-10-18T02:08:46;98939.41;;;12.84;100.00
60589;BME280;46421;48.610;9.334;2022-10-18T02:11:15;98928.28;;;12.63;100.00
60589;BME280;46421;48.610;9.334;2022-10-18T02:13:43;98936.09;;;12.81;100.00
60589;BME280;46421;48.610;9.334;2022-10-18T02:16:13;98930.13;;;13.27;100.00
60589;BME280;46421;48.610;9.334;2022-10-18T02:18:44;98920.88;;;13.07;100.00
60589;BME280;46421;48.610;9.334;2022-10-18T02:21:12;98926.06;;;12.84;100.00
60589;BME280;46421;48.610;9.334;2022-10-18T02:23:40;98935.28;;;12.64;100.00
60589;BME280;46421;48.610;9.334;2022-10-18T02:26:07;98936.78;;;12.59;100.00
60589;BME280;46421;48.610;9.334;2022-10-18T02:28:32;98928.63;;;12.36;100.00
60589;BME280;46421;48.610;9.334;2022-10-18T02:31:09;98925.13;;;12.52;100.00
60589;BME280;46421;48.610;9.334;2022-10-18T02:33:54;98929.13;;;12.39;100.00
60589;BME280;46421;48.610;9.334;2022-10-18T02:36:31;98929.09;;;12.31;100.00
60589;BME280;46421;48.610;9.334;2022-10-18T02:39:02;98935.63;;;12.45;100.00
60589;BME280;46421;48.610;9.334;2022-10-18T02:41:29;98936.44;;;12.62;100.00
60589;BME280;46421;48.610;9.334;2022-10-18T02:43:55;98930.78;;;12.57;100.00
60589;BME280;46421;48.610;9.334;2022-10-18T02:46:21;98934.44;;;12.72;100.00
60589;BME280;46421;48.610;9.334;2022-10-18T02:48:46;98926.44;;;12.47;100.00
60589;BME280;46421;48.610;9.334;2022-10-18T02:51:12;98928.63;;;12.69;100.00
60589;BME280;46421;48.610;9.334;2022-10-18T02:53:38;98925.09;;;12.68;100.00
60589;BME280;46421;48.610;9.334;2022-10-18T02:56:03;98927.44;;;12.79;100.00
60589;BME280;46421;48.610;9.334;2022-10-18T02:58:29;98926.59;;;12.79;100.00
60589;BME280;46421;48.610;9.334;2022-10-18T03:00:54;98920.94;;;12.74;100.00
60589;BME280;46421;48.610;9.334;2022-10-18T03:03:19;98932.28;;;12.68;100.00
60589;BME280;46421;48.610;9.334;2022-10-18T03:05:48;98932.47;;;12.58;100.00
60589;BME280;46421;48.610;9.334;2022-10-18T03:08:13;98939.59;;;12.65;100.00
60589;BME280;46421;48.610;9.334;2022-10-18T03:10:39;98934.44;;;12.64;100.00
60589;BME280;46421;48.610;9.334;2022-10-18T03:13:04;98933.28;;;12.50;100.00
60589;BME280;46421;48.610;9.334;2022-10-18T03:15:30;98934.63;;;12.62;100.00
60589;BME280;46421;48.610;9.334;2022-10-18T03:17:55;98938.44;;;12.76;100.00
60589;BME280;46421;48.610;9.334;2022-10-18T03:20:20;98934.75;;;12.77;100.00
60589;BME280;46421;48.610;9.334;2022-10-18T03:22:46;98932.78;;;12.71;100.00
60589;BME280;46421;48.610;9.334;2022-10-18T03:25:11;98927.44;;;12.63;100.00
60589;BME280;46421;48.610;9.334;2022-10-18T03:27:36;98927.44;;;12.38;100.00
60589;BME280;46421;48.610;9.334;2022-10-18T03:30:02;98923.47;;;12.67;100.00
60589;BME280;46421;48.610;9.334;2022-10-18T03:32:29;98931.28;;;12.77;100.00
60589;BME280;46421;48.610;9.334;2022-10-18T03:34:55;98930.75;;;12.98;100.00
60589;BME280;46421;48.610;9.334;2022-10-18T03:37:20;98921.22;;;12.87;100.00
60589;BME280;46421;48.610;9.334;2022-10-18T03:39:46;98925.97;;;13.25;100.00
60589;BME280;46421;48.610;9.334;2022-10-18T03:42:11;98917.34;;;13.06;100.00
60589;BME280;46421;48.610;9.334;2022-10-18T03:44:36;98926.75;;;12.77;100.00
60589;BME280;46421;48.610;9.334;2022-10-18T03:47:02;98916.78;;;12.71;100.00
60589;BME280;46421;48.610;9.334;2022-10-18T03:49:27;98916.25;;;12.84;100.00
60589;BME280;46421;48.610;9.334;2022-10-18T03:51:52;98930.28;;;12.78;100.00
60589;BME280;46421;48.610;9.334;2022-10-18T03:54:18;98926.91;;;12.92;100.00
60589;BME280;46421;48.610;9.334;2022-10-18T03:56:43;98934.09;;;12.84;100.00
60589;BME280;46421;48.610;9.334;2022-10-18T03:59:09;98924.44;;;12.83;100.00
60589;BME280;46421;48.610;9.334;2022-10-18T04:01:34;98928.22;;;12.96;100.00
60589;BME280;46421;48.610;9.334;2022-10-18T04:03:59;98938.06;;;12.96;100.00
60589;BME280;46421;48.610;9.334;2022-10-18T04:06:25;98928.38;;;13.03;100.00
60589;BME280;46421;48.610;9.334;2022-10-18T04:08:50;98933.59;;;12.72;100.00
60589;BME280;46421;48.610;9.334;2022-10-18T04:11:15;98925.25;;;12.83;100.00
60589;BME280;46421;48.610;9.334;2022-10-18T04:13:41;98926.91;;;12.92;100.00
60589;BME280;46421;48.610;9.334;2022-10-18T04:16:06;98928.69;;;13.08;100.00
60589;BME280;46421;48.610;9.334;2022-10-18T04:18:32;98923.88;;;13.04;100.00
60589;BME280;46421;48.610;9.334;2022-10-18T04:20:57;98919.56;;;12.94;100.00
60589;BME280;46421;48.610;9.334;2022-10-18T04:23:23;98920.91;;;12.90;100.00
60589;BME280;46421;48.610;9.334;2022-10-18T04:25:48;98918.75;;;12.77;100.00
60589;BME280;46421;48.610;9.334;2022-10-18T04:28:14;98921.91;;;12.89;100.00
60589;BME280;46421;48.610;9.334;2022-10-18T04:30:39;98928.91;;;12.99;100.00
60589;BME280;46421;48.610;9.334;2022-10-18T04:33:04;98927.13;;;12.74;100.00
60589;BME280;46421;48.610;9.334;2022-10-18T04:35:30;98933.25;;;12.83;100.00
60589;BME280;46421;48.610;9.334;2022-10-18T04:37:55;98931.91;;;12.87;100.00
60589;BME280;46421;48.610;9.334;2022-10-18T04:40:20;98938.09;;;12.88;100.00
60589;BME280;46421;48.610;9.334;2022-10-18T04:42:46;98938.41;;;12.93;100.00
60589;BME280;46421;48.610;9.334;2022-10-18T04:45:12;98938.75;;;12.98;100.00
60589;BME280;46421;48.610;9.334;2022-10-18T04:47:37;98942.41;;;13.05;100.00
60589;BME280;46421;48.610;9.334;2022-10-18T04:50:03;98940.84;;;13.19;100.00
60589;BME280;46421;48.610;9.334;2022-10-18T04:52:29;98935.53;;;13.03;100.00
60589;BME280;46421;48.610;9.334;2022-10-18T04:54:54;98940.94;;;12.70;100.00
60589;BME280;46421;48.610;9.334;2022-10-18T04:57:20;98941.44;;;12.65;100.00
60589;BME280;46421;48.610;9.334;2022-10-18T04:59:45;98938.78;;;12.48;100.00
60589;BME280;46421;48.610;9.334;2022-10-18T05:02:10;98940.28;;;12.51;100.00
60589;BME280;46421;48.610;9.334;2022-10-18T05:04:36;98947.47;;;12.59;100.00
60589;BME280;46421;48.610;9.334;2022-10-18T05:07:01;98944.13;;;12.65;100.00
60589;BME280;46421;48.610;9.334;2022-10-18T05:09:27;98952.63;;;12.69;100.00
60589;BME280;46421;48.610;9.334;2022-10-18T05:11:52;98950.59;;;12.87;100.00
60589;BME280;46421;48.610;9.334;2022-10-18T05:14:17;98950.44;;;12.97;100.00
60589;BME280;46421;48.610;9.334;2022-10-18T05:16:43;98941.09;;;12.76;100.00
60589;BME280;46421;48.610;9.334;2022-10-18T05:19:08;98950.78;;;12.77;100.00
60589;BME280;46421;48.610;9.334;2022-10-18T05:21:34;98958.44;;;12.80;100.00
60589;BME280;46421;48.610;9.334;2022-10-18T05:23:59;98950.94;;;12.76;100.00
60589;BME280;46421;48.610;9.334;2022-10-18T05:26:24;98951.13;;;12.74;100.00
60589;BME280;46421;48.610;9.334;2022-10-18T05:28:50;98951.28;;;12.64;100.00
60589;BME280;46421;48.610;9.334;2022-10-18T05:31:16;98952.13;;;12.65;100.00
60589;BME280;46421;48.610;9.334;2022-10-18T05:33:41;98943.13;;;12.41;100.00
60589;BME280;46421;48.610;9.334;2022-10-18T05:36:07;98945.13;;;12.39;100.00
60589;BME280;46421;48.610;9.334;2022-10-18T05:38:32;98948.28;;;12.59;100.00
60589;BME280;46421;48.610;9.334;2022-10-18T05:40:58;98952.63;;;12.77;100.00
60589;BME280;46421;48.610;9.334;2022-10-18T05:43:27;98947.47;;;12.42;100.00
60589;BME280;46421;48.610;9.334;2022-10-18T05:45:53;98945.78;;;12.58;100.00
60589;BME280;46421;48.610;9.334;2022-10-18T05:48:18;98943.28;;;12.48;100.00
60589;BME280;46421;48.610;9.334;2022-10-18T05:50:44;98942.44;;;12.39;100.00
60589;BME280;46421;48.610;9.334;2022-10-18T05:53:10;98944.63;;;12.36;100.00
60589;BME280;46421;48.610;9.334;2022-10-18T05:55:36;98945.63;;;12.59;100.00
60589;BME280;46421;48.610;9.334;2022-10-18T05:58:02;98938.47;;;12.43;100.00
60589;BME280;46421;48.610;9.334;2022-10-18T06:00:28;98936.78;;;12.34;100.00
60589;BME280;46421;48.610;9.334;2022-10-18T06:02:54;98943.59;;;12.20;100.00
60589;BME280;46421;48.610;9.334;2022-10-18T06:05:19;98951.44;;;12.22;100.00
60589;BME280;46421;48.610;9.334;2022-10-18T06:07:45;98952.94;;;12.49;100.00
60589;BME280;46421;48.610;9.334;2022-10-18T06:10:10;98946.94;;;12.80;100.00
60589;BME280;46421;48.610;9.334;2022-10-18T06:12:35;98949.28;;;12.75;100.00
60589;BME280;46421;48.610;9.334;2022-10-18T06:15:01;98953.13;;;12.47;100.00
60589;BME280;46421;48.610;9.334;2022-10-18T06:17:26;98949.94;;;12.36;100.00
60589;BME280;46421;48.610;9.334;2022-10-18T06:19:51;98950.09;;;12.26;100.00
60589;BME280;46421;48.610;9.334;2022-10-18T06:22:17;98946.78;;;12.24;100.00
60589;BME280;46421;48.610;9.334;2022-10-18T06:24:42;98952.44;;;12.29;100.00
60589;BME280;46421;48.610;9.334;2022-10-18T06:27:08;98949.44;;;12.32;100.00
60589;BME280;46421;48.610;9.334;2022-10-18T06:29:39;98947.97;;;12.46;100.00
60589;BME280;46421;48.610;9.334;2022-10-18T06:32:05;98954.47;;;12.43;100.00
60589;BME280;46421;48.610;9.334;2022-10-18T06:34:31;98948.28;;;12.59;100.00
60589;BME280;46421;48.610;9.334;2022-10-18T06:36:57;98959.44;;;12.96;100.00
60589;BME280;46421;48.610;9.334;2022-10-18T06:39:22;98951.81;;;13.81;100.00
60589;BME280;46421;48.610;9.334;2022-10-18T06:41:48;98957.28;;;16.15;86.97
60589;BME280;46421;48.610;9.334;2022-10-18T06:44:14;98964.03;;;17.68;77.18
60589;BME280;46421;48.610;9.334;2022-10-18T06:46:43;98961.59;;;18.55;72.91
60589;BME280;46421;48.610;9.334;2022-10-18T06:49:10;98969.28;;;19.19;68.59
60589;BME280;46421;48.610;9.334;2022-10-18T06:51:36;98958.63;;;20.10;63.96
60589;BME280;46421;48.610;9.334;2022-10-18T06:54:02;98975.78;;;20.54;63.18
60589;BME280;46421;48.610;9.334;2022-10-18T06:56:28;98974.53;;;21.88;58.51
60589;BME280;46421;48.610;9.334;2022-10-18T06:58:54;98965.47;;;22.43;54.66
60589;BME280;46421;48.610;9.334;2022-10-18T07:01:20;98967.34;;;23.33;52.63
60589;BME280;46421;48.610;9.334;2022-10-18T07:03:47;98964.06;;;23.83;51.14
60589;BME280;46421;48.610;9.334;2022-10-18T07:06:15;98971.88;;;24.84;50.64
60589;BME280;46421;48.610;9.334;2022-10-18T07:08:41;98979.38;;;25.10;48.97
60589;BME280;46421;48.610;9.334;2022-10-18T07:11:07;98985.59;;;25.28;47.59
60589;BME280;46421;48.610;9.334;2022-10-18T07:13:38;98983.34;;;22.87;53.01
60589;BME280;46421;48.610;9.334;2022-10-18T07:16:05;98983.47;;;23.16;53.14
60589;BME280;46421;48.610;9.334;2022-10-18T07:18:35;98977.91;;;21.84;56.88
60589;BME280;46421;48.610;9.334;2022-10-18T07:21:03;98973.16;;;21.42;59.88
60589;BME280;46421;48.610;9.334;2022-10-18T07:23:31;98966.97;;;19.95;63.23
60589;BME280;46421;48.610;9.334;2022-10-18T07:25:56;98972.75;;;19.33;66.54
60589;BME280;46421;48.610;9.334;2022-10-18T07:28:22;98959.69;;;18.29;72.28
60589;BME280;46421;48.610;9.334;2022-10-18T07:30:47;98959.94;;;17.72;76.96
60589;BME280;46421;48.610;9.334;2022-10-18T07:33:12;98957.03;;;17.32;79.83
60589;BME280;46421;48.610;9.334;2022-10-18T07:35:38;98964.28;;;16.81;84.12
60589;BME280;46421;48.610;9.334;2022-10-18T07:38:03;98971.69;;;16.51;85.20
60589;BME280;46421;48.610;9.334;2022-10-18T07:40:28;98966.25;;;16.44;87.14
60589;BME280;46421;48.610;9.334;2022-10-18T07:42:54;98966.88;;;16.46;85.86
60589;BME280;46421;48.610;9.334;2022-10-18T07:45:19;98974.84;;;16.39;84.85
60589;BME280;46421;48.610;9.334;2022-10-18T07:47:44;98968.28;;;16.42;83.81
60589;BME280;46421;48.610;9.334;2022-10-18T07:50:10;98975.84;;;16.32;86.75
60589;BME280;46421;48.610;9.334;2022-10-18T07:52:35;98973.00;;;16.18;87.40
60589;BME280;46421;48.610;9.334;2022-10-18T07:55:01;98966.25;;;16.22;85.73
60589;BME280;46421;48.610;9.334;2022-10-18T07:57:26;98977.09;;;16.36;86.54
60589;BME280;46421;48.610;9.334;2022-10-18T07:59:51;98969.13;;;16.42;85.60
60589;BME280;46421;48.610;9.334;2022-10-18T08:02:22;98983.44;;;16.50;86.41
60589;BME280;46421;48.610;9.334;2022-10-18T08:04:47;98982.31;;;16.66;85.63
60589;BME280;46421;48.610;9.334;2022-10-18T08:07:13;98988.47;;;16.59;85.80
60589;BME280;46421;48.610;9.334;2022-10-18T08:09:38;98979.13;;;16.77;87.81
60589;BME280;46421;48.610;9.334;2022-10-18T08:12:04;98971.72;;;17.01;85.21
60589;BME280;46421;48.610;9.334;2022-10-18T08:14:29;98968.00;;;17.02;85.50
60589;BME280;46421;48.610;9.334;2022-10-18T08:16:55;98973.09;;;16.97;85.44
60589;BME280;46421;48.610;9.334;2022-10-18T08:19:20;98975.53;;;16.91;85.33
60589;BME280;46421;48.610;9.334;2022-10-18T08:21:45;98970.03;;;17.28;82.99
60589;BME280;46421;48.610;9.334;2022-10-18T08:24:11;98982.38;;;17.22;83.21
60589;BME280;46421;48.610;9.334;2022-10-18T08:26:36;98987.47;;;17.46;81.92
60589;BME280;46421;48.610;9.334;2022-10-18T08:29:01;98987.63;;;17.73;81.20
60589;BME280;46421;48.610;9.334;2022-10-18T08:31:27;98987.50;;;18.49;73.78
60589;BME280;46421;48.610;9.334;2022-10-18T08:33:54;98990.78;;;19.46;72.12
60589;BME280;46421;48.610;9.334;2022-10-18T08:36:20;98996.56;;;21.11;64.12
60589;BME280;46421;48.610;9.334;2022-10-18T08:38:46;98994.50;;;21.50;62.68
60589;BME280;46421;48.610;9.334;2022-10-18T08:41:50;98993.22;;;22.08;60.25
60589;BME280;46421;48.610;9.334;2022-10-18T08:44:18;98995.19;;;20.76;62.83
60589;BME280;46421;48.610;9.334;2022-10-18T08:46:47;99003.13;;;20.32;66.47
60589;BME280;46421;48.610;9.334;2022-10-18T08:49:35;99004.19;;;19.86;67.76
60589;BME280;46421;48.610;9.334;2022-10-18T08:52:10;98999.97;;;20.03;69.14
60589;BME280;46421;48.610;9.334;2022-10-18T08:57:41;98997.47;;;20.41;66.60
60589;BME280;46421;48.610;9.334;2022-10-18T09:00:17;98994.19;;;22.45;58.57
60589;BME280;46421;48.610;9.334;2022-10-18T09:03:12;98995.31;;;26.02;48.95
60589;BME280;46421;48.610;9.334;2022-10-18T09:05:49;98988.25;;;26.29;45.85
60589;BME280;46421;48.610;9.334;2022-10-18T09:14:02;98985.47;;;29.26;39.57
60589;BME280;46421;48.610;9.334;2022-10-18T09:16:44;98980.63;;;28.76;40.63
60589;BME280;46421;48.610;9.334;2022-10-18T09:21:52;98992.69;;;27.91;40.36
60589;BME280;46421;48.610;9.334;2022-10-18T09:24:26;98986.56;;;29.25;38.08
60589;BME280;46421;48.610;9.334;2022-10-18T09:27:04;98984.41;;;29.01;39.84
60589;BME280;46421;48.610;9.334;2022-10-18T09:32:23;98987.16;;;24.56;49.52
60589;BME280;46421;48.610;9.334;2022-10-18T09:34:52;98991.63;;;23.51;53.60
60589;BME280;46421;48.610;9.334;2022-10-18T09:37:21;98989.34;;;22.65;57.22
60589;BME280;46421;48.610;9.334;2022-10-18T09:39:51;99004.81;;;21.16;61.53
60589;BME280;46421;48.610;9.334;2022-10-18T09:42:30;98998.50;;;20.72;64.28
60589;BME280;46421;48.610;9.334;2022-10-18T09:45:01;98994.88;;;20.59;65.75
60589;BME280;46421;48.610;9.334;2022-10-18T09:48:01;98996.34;;;20.55;64.78
60589;BME280;46421;48.610;9.334;2022-10-18T09:50:35;98998.94;;;21.00;65.66
60589;BME280;46421;48.610;9.334;2022-10-18T09:53:09;99001.13;;;20.85;65.44
60589;BME280;46421;48.610;9.334;2022-10-18T09:58:45;99002.91;;;20.98;65.74
60589;BME280;46421;48.610;9.334;2022-10-18T10:01:14;99001.03;;;20.98;65.80
60589;BME280;46421;48.610;9.334;2022-10-18T10:03:41;98999.66;;;20.89;64.95
60589;BME280;46421;48.610;9.334;2022-10-18T10:08:48;99001.31;;;21.15;65.50
60589;BME280;46421;48.610;9.334;2022-10-18T10:11:36;99004.75;;;21.67;65.97
60589;BME280;46421;48.610;9.334;2022-10-18T10:14:12;99012.88;;;21.67;63.03
60589;BME280;46421;48.610;9.334;2022-10-18T10:17:03;99011.09;;;21.60;63.44
60589;BME280;46421;48.610;9.334;2022-10-18T10:19:34;99008.53;;;22.15;62.46
60589;BME280;46421;48.610;9.334;2022-10-18T10:22:06;99014.34;;;22.18;62.47
60589;BME280;46421;48.610;9.334;2022-10-18T10:24:46;99002.72;;;21.99;63.98
60589;BME280;46421;48.610;9.334;2022-10-18T10:27:17;99004.16;;;21.21;64.11
60589;BME280;46421;48.610;9.334;2022-10-18T10:29:49;99003.91;;;22.03;62.08
60589;BME280;46421;48.610;9.334;2022-10-18T10:32:17;98996.00;;;22.02;62.00
60589;BME280;46421;48.610;9.334;2022-10-18T10:34:43;99003.03;;;22.40;59.50
60589;BME280;46421;48.610;9.334;2022-10-18T10:40:12;98990.19;;;23.01;57.52
60589;BME280;46421;48.610;9.334;2022-10-18T10:42:51;98996.59;;;22.53;58.92
60589;BME280;46421;48.610;9.334;2022-10-18T10:45:22;98996.00;;;23.41;56.27
60589;BME280;46421;48.610;9.334;2022-10-18T10:47:51;98999.84;;;25.35;50.86
60589;BME280;46421;48.610;9.334;2022-10-18T10:50:25;99003.56;;;29.11;43.61
60589;BME280;46421;48.610;9.334;2022-10-18T10:52:52;99006.47;;;29.66;40.63
60589;BME280;46421;48.610;9.334;2022-10-18T10:55:22;99001.47;;;29.84;41.74
60589;BME280;46421;48.610;9.334;2022-10-18T10:57:50;98992.53;;;29.58;43.36
60589;BME280;46421;48.610;9.334;2022-10-18T11:05:54;98990.63;;;28.14;41.91
60589;BME280;46421;48.610;9.334;2022-10-18T11:08:22;98988.00;;;28.81;41.75
60589;BME280;46421;48.610;9.334;2022-10-18T11:11:03;98991.78;;;28.59;41.13
60589;BME280;46421;48.610;9.334;2022-10-18T11:13:45;98994.75;;;31.30;36.57
60589;BME280;46421;48.610;9.334;2022-10-18T11:16:25;98978.31;;;29.56;38.69
60589;BME280;46421;48.610;9.334;2022-10-18T11:18:55;98972.94;;;27.20;43.48
60589;BME280;46421;48.610;9.334;2022-10-18T11:21:24;98967.44;;;25.95;45.78
60589;BME280;46421;48.610;9.334;2022-10-18T11:23:51;98971.09;;;25.39;46.50
60589;BME280;46421;48.610;9.334;2022-10-18T11:26:26;98964.34;;;26.09;45.49
60589;BME280;46421;48.610;9.334;2022-10-18T11:34:40;98962.31;;;29.78;36.73
60589;BME280;46421;48.610;9.334;2022-10-18T11:45:35;98955.13;;;28.60;39.99
60589;BME280;46421;48.610;9.334;2022-10-18T11:51:29;98957.25;;;25.85;46.84
60589;BME280;46421;48.610;9.334;2022-10-18T11:54:01;98954.00;;;27.46;43.27
60589;BME280;46421;48.610;9.334;2022-10-18T11:56:41;98951.00;;;29.09;40.43
60589;BME280;46421;48.610;9.334;2022-10-18T12:01:56;98959.13;;;31.25;34.76
60589;BME280;46421;48.610;9.334;2022-10-18T12:04:30;98949.75;;;31.26;36.17
60589;BME280;46421;48.610;9.334;2022-10-18T12:06:57;98949.75;;;30.27;38.15
60589;BME280;46421;48.610;9.334;2022-10-18T12:09:30;98952.16;;;28.77;39.87
60589;BME280;46421;48.610;9.334;2022-10-18T12:12:05;98941.56;;;26.80;44.01
60589;BME280;46421;48.610;9.334;2022-10-18T12:14:36;98944.09;;;24.82;47.89
60589;BME280;46421;48.610;9.334;2022-10-18T12:17:11;98944.53;;;24.73;50.02
60589;BME280;46421;48.610;9.334;2022-10-18T12:19:40;98938.38;;;25.56;50.12
60589;BME280;46421;48.610;9.334;2022-10-18T12:22:20;98937.53;;;26.23;47.89
60589;BME280;46421;48.610;9.334;2022-10-18T12:24:47;98925.63;;;23.75;53.43
60589;BME280;46421;48.610;9.334;2022-10-18T12:27:13;98937.00;;;22.22;58.54
60589;BME280;46421;48.610;9.334;2022-10-18T12:29:52;98937.56;;;23.62;56.88
60589;BME280;46421;48.610;9.334;2022-10-18T12:32:24;98932.44;;;23.36;56.75
60589;BME280;46421;48.610;9.334;2022-10-18T12:34:54;98933.09;;;22.49;59.44
60589;BME280;46421;48.610;9.334;2022-10-18T12:40:04;98929.09;;;21.60;63.47
60589;BME280;46421;48.610;9.334;2022-10-18T12:42:40;98929.81;;;21.30;64.70
60589;BME280;46421;48.610;9.334;2022-10-18T12:47:38;98934.94;;;20.76;68.30
60589;BME280;46421;48.610;9.334;2022-10-18T12:50:21;98940.72;;;20.47;69.38
60589;BME280;46421;48.610;9.334;2022-10-18T12:53:22;98937.28;;;20.33;69.56
60589;BME280;46421;48.610;9.334;2022-10-18T12:55:49;98925.34;;;20.16;72.74
60589;BME280;46421;48.610;9.334;2022-10-18T13:19:00;98931.63;;;24.35;55.36
60589;BME280;46421;48.610;9.334;2022-10-18T13:21:51;98922.53;;;24.12;56.03
60589;BME280;46421;48.610;9.334;2022-10-18T13:27:18;98931.09;;;22.44;62.15
60589;BME280;46421;48.610;9.334;2022-10-18T13:30:15;98932.66;;;21.91;63.69
60589;BME280;46421;48.610;9.334;2022-10-18T13:35:55;98929.81;;;21.48;65.92
60589;BME280;46421;48.610;9.334;2022-10-18T13:41:13;98930.50;;;21.44;64.21
60589;BME280;46421;48.610;9.334;2022-10-18T13:46:18;98927.66;;;21.57;64.51
60589;BME280;46421;48.610;9.334;2022-10-18T13:51:43;98924.88;;;21.64;65.63
60589;BME280;46421;48.610;9.334;2022-10-18T13:57:36;98936.28;;;21.10;68.75
60589;BME280;46421;48.610;9.334;2022-10-18T14:05:44;98935.09;;;20.17;72.72
60589;BME280;46421;48.610;9.334;2022-10-18T14:08:18;98934.16;;;20.04;74.29
60589;BME280;46421;48.610;9.334;2022-10-18T14:13:42;98948.25;;;20.38;74.72
60589;BME280;46421;48.610;9.334;2022-10-18T14:16:25;98946.00;;;20.35;74.00
60589;BME280;46421;48.610;9.334;2022-10-18T14:18:56;98953.84;;;20.12;75.70
60589;BME280;46421;48.610;9.334;2022-10-18T14:21:30;98942.66;;;20.08;75.08
60589;BME280;46421;48.610;9.334;2022-10-18T14:23:58;98943.22;;;20.10;74.78
60589;BME280;46421;48.610;9.334;2022-10-18T14:26:23;98951.81;;;20.00;77.28
60589;BME280;46421;48.610;9.334;2022-10-18T14:29:13;98952.06;;;19.92;76.63
60589;BME280;46421;48.610;9.334;2022-10-18T14:31:40;98951.94;;;19.67;78.94
60589;BME280;46421;48.610;9.334;2022-10-18T14:34:13;98954.47;;;19.55;79.75
60589;BME280;46421;48.610;9.334;2022-10-18T14:36:39;98949.53;;;19.45;79.90
60589;BME280;46421;48.610;9.334;2022-10-18T14:39:06;98957.59;;;19.45;80.46
60589;BME280;46421;48.610;9.334;2022-10-18T14:41:49;98954.69;;;19.47;81.29
60589;BME280;46421;48.610;9.334;2022-10-18T14:49:16;98962.69;;;19.73;80.28
60589;BME280;46421;48.610;9.334;2022-10-18T14:51:43;98962.06;;;19.78;81.42
60589;BME280;46421;48.610;9.334;2022-10-18T14:54:14;98962.06;;;19.78;80.22
60589;BME280;46421;48.610;9.334;2022-10-18T14:56:40;98963.69;;;19.79;79.86
60589;BME280;46421;48.610;9.334;2022-10-18T14:59:19;98962.25;;;19.83;79.97
60589;BME280;46421;48.610;9.334;2022-10-18T15:02:12;98964.13;;;19.83;79.35